Time;durP1;ratioP1;P1;durP2;ratioP2;P2;SDS_P1;SDS_P2;PMS_P1;PMS_P2;Temp;Humidity;BMP_temperature;BMP_pressure;BME280_temperature;BME280_humidity;BME280_pressure;Samples;Min_cycle;Max_cycle;Signal;HPM_P1;HPM_P2
2023/10/19 00:00:19;;;;;;;27.75;15.95;;;;;;;;;;5015916;28;20878;-76
2023/10/19 00:02:47;;;;;;;26.52;15.80;;;;;;;;;;5015269;28;20187;-77
2023/10/19 00:05:14;;;;;;;25.98;15.23;;;;;;;;;;4999363;28;20182;-78
2023/10/19 00:07:41;;;;;;;25.20;16.15;;;;;;;;;;5014117;28;20244;-79
2023/10/19 00:10:06;;;;;;;29.75;16.58;;;;;;;;;;5019127;28;20653;-77
2023/10/19 00:12:32;;;;;;;27.40;16.98;;;;;;;;;;5010160;28;20190;-77
2023/10/19 00:14:58;;;;;;;28.83;17.30;;;;;;;;;;5000029;28;20632;-76
2023/10/19 00:17:27;;;;;;;27.75;16.88;;;;;;;;;;5014833;28;20191;-76
2023/10/19 00:20:27;;;;;;;30.15;17.25;;;;;;;;;;5002797;28;20191;-76
2023/10/19 00:22:44;;;;;;;27.13;17.85;;;;;;;;;;4988564;28;20191;-77
2023/10/19 00:25:13;;;;;;;29.20;17.55;;;;;;;;;;4975830;28;20174;-77
2023/10/19 00:27:39;;;;;;;28.17;17.40;;;;;;;;;;4983075;28;20183;-75
2023/10/19 00:30:06;;;;;;;31.55;17.30;;;;;;;;;;4996686;28;20269;-77
2023/10/19 00:32:32;;;;;;;31.50;16.70;;;;;;;;;;5018098;28;20563;-78
2023/10/19 00:35:04;;;;;;;29.23;17.20;;;;;;;;;;4995601;28;20222;-77
2023/10/19 00:37:32;;;;;;;28.58;17.80;;;;;;;;;;5030830;28;20186;-79
2023/10/19 00:40:14;;;;;;;32.85;17.60;;;;;;;;;;5007343;28;20669;-78
2023/10/19 00:42:45;;;;;;;28.05;17.23;;;;;;;;;;5009441;28;20182;-79
2023/10/19 00:45:13;;;;;;;31.80;17.80;;;;;;;;;;5003451;28;20238;-79
2023/10/19 00:47:42;;;;;;;28.90;18.33;;;;;;;;;;5011702;28;20679;-75
2023/10/19 00:50:16;;;;;;;33.67;18.27;;;;;;;;;;4992639;28;20187;-77
2023/10/19 00:52:51;;;;;;;30.63;18.63;;;;;;;;;;5006379;28;20195;-78
2023/10/19 00:55:20;;;;;;;32.03;18.15;;;;;;;;;;4995717;28;20213;-77
2023/10/19 00:57:48;;;;;;;31.55;19.52;;;;;;;;;;5001187;28;20186;-77
2023/10/19 01:00:49;;;;;;;30.08;18.02;;;;;;;;;;4987608;28;20260;-77
2023/10/19 01:03:09;;;;;;;27.13;17.90;;;;;;;;;;5006784;28;20225;-77
2023/10/19 01:05:36;;;;;;;27.60;18.60;;;;;;;;;;4991291;28;20186;-77
2023/10/19 01:08:13;;;;;;;28.38;18.50;;;;;;;;;;4977406;28;20670;-77
2023/10/19 01:10:39;;;;;;;28.27;18.27;;;;;;;;;;5007145;28;20533;-75
2023/10/19 01:13:05;;;;;;;33.63;19.92;;;;;;;;;;5012656;28;20187;-77
2023/10/19 01:15:36;;;;;;;33.03;20.05;;;;;;;;;;4992433;28;20215;-76
2023/10/19 01:18:02;;;;;;;32.50;20.10;;;;;;;;;;5011958;28;20309;-76
2023/10/19 01:31:14;;;;;;;33.28;20.45;;;;;;;;;;5010547;28;20191;-75
2023/10/19 01:33:41;;;;;;;37.22;20.05;;;;;;;;;;4982824;28;20206;-76
2023/10/19 01:36:11;;;;;;;33.03;19.35;;;;;;;;;;5007315;28;20201;-75
2023/10/19 01:38:38;;;;;;;33.20;19.45;;;;;;;;;;4993687;28;20191;-75
2023/10/19 01:41:08;;;;;;;32.63;19.02;;;;;;;;;;4991214;28;20198;-75
2023/10/19 01:43:33;;;;;;;29.60;17.42;;;;;;;;;;4982372;28;20239;-76
2023/10/19 01:46:04;;;;;;;32.15;18.65;;;;;;;;;;5001195;28;20200;-75
2023/10/19 01:48:33;;;;;;;29.23;17.42;;;;;;;;;;5010682;28;20266;-76
2023/10/19 01:51:04;;;;;;;32.28;18.17;;;;;;;;;;4993526;28;20187;-75
2023/10/19 01:53:31;;;;;;;30.83;18.23;;;;;;;;;;4978021;28;20299;-75
2023/10/19 01:55:59;;;;;;;25.17;17.23;;;;;;;;;;4985239;28;20237;-76
2023/10/19 01:58:25;;;;;;;30.85;17.85;;;;;;;;;;5008264;28;20253;-75
2023/10/19 02:00:59;;;;;;;26.60;17.33;;;;;;;;;;4992512;28;20265;-76
2023/10/19 02:03:27;;;;;;;24.73;17.42;;;;;;;;;;4995408;28;20244;-76
2023/10/19 02:06:00;;;;;;;27.13;17.70;;;;;;;;;;4988347;28;20195;-76
2023/10/19 02:08:26;;;;;;;27.38;17.50;;;;;;;;;;4979608;28;20199;-76
2023/10/19 02:10:53;;;;;;;28.42;18.63;;;;;;;;;;4972961;28;20218;-76
2023/10/19 02:13:21;;;;;;;26.30;17.58;;;;;;;;;;4987590;28;20183;-76
2023/10/19 02:15:47;;;;;;;27.75;18.40;;;;;;;;;;4968526;28;20222;-75
2023/10/19 02:18:12;;;;;;;29.35;18.15;;;;;;;;;;4974753;28;20196;-75
2023/10/19 02:20:41;;;;;;;29.98;18.98;;;;;;;;;;4987753;28;20187;-75
2023/10/19 02:23:09;;;;;;;38.30;20.35;;;;;;;;;;4988543;28;20283;-76
2023/10/19 02:25:37;;;;;;;31.27;18.73;;;;;;;;;;4988221;28;20274;-75
2023/10/19 02:28:09;;;;;;;33.78;20.02;;;;;;;;;;4988899;28;20188;-75
2023/10/19 02:30:34;;;;;;;30.05;19.13;;;;;;;;;;4982494;28;20206;-75
2023/10/19 02:33:01;;;;;;;29.60;19.20;;;;;;;;;;4987851;28;20240;-77
2023/10/19 02:35:27;;;;;;;32.40;20.45;;;;;;;;;;4985250;28;20223;-75
2023/10/19 02:37:53;;;;;;;31.23;19.45;;;;;;;;;;4983856;28;20191;-76
2023/10/19 02:40:23;;;;;;;29.83;19.10;;;;;;;;;;4983190;28;20199;-76
2023/10/19 02:42:53;;;;;;;31.33;19.00;;;;;;;;;;4981948;28;20188;-75
2023/10/19 02:45:19;;;;;;;30.75;19.95;;;;;;;;;;4979298;28;20278;-74
2023/10/19 02:47:45;;;;;;;31.00;20.27;;;;;;;;;;4988689;28;20690;-76
2023/10/19 02:50:15;;;;;;;32.35;20.35;;;;;;;;;;4989475;28;20278;-74
2023/10/19 02:52:42;;;;;;;27.95;19.35;;;;;;;;;;4985034;28;20531;-74
2023/10/19 02:55:09;;;;;;;30.38;20.13;;;;;;;;;;4989745;28;20322;-74
2023/10/19 02:57:34;;;;;;;31.73;20.38;;;;;;;;;;4989916;28;20606;-76
2023/10/19 03:00:01;;;;;;;35.38;19.67;;;;;;;;;;4984091;28;20305;-76
2023/10/19 03:02:26;;;;;;;32.40;20.55;;;;;;;;;;4989704;28;20443;-75
2023/10/19 03:04:54;;;;;;;34.67;20.92;;;;;;;;;;5002633;28;20191;-75
2023/10/19 03:07:20;;;;;;;30.17;20.25;;;;;;;;;;4988068;28;20253;-73
2023/10/19 03:09:48;;;;;;;33.65;20.98;;;;;;;;;;4987581;28;20179;-74
2023/10/19 03:12:14;;;;;;;34.08;22.55;;;;;;;;;;4979126;28;20195;-73
2023/10/19 03:14:41;;;;;;;30.55;19.67;;;;;;;;;;5000554;28;20211;-73
2023/10/19 03:17:08;;;;;;;34.30;21.98;;;;;;;;;;4987746;28;20192;-72
2023/10/19 03:19:34;;;;;;;34.70;22.73;;;;;;;;;;4992339;28;20191;-73
2023/10/19 03:22:00;;;;;;;33.90;21.52;;;;;;;;;;5006830;28;20191;-73
2023/10/19 03:24:43;;;;;;;34.72;22.05;;;;;;;;;;4995338;28;20202;-72
2023/10/19 03:27:22;;;;;;;31.63;20.40;;;;;;;;;;4991890;28;20219;-74
2023/10/19 03:29:54;;;;;;;33.42;21.55;;;;;;;;;;4992749;28;20191;-75
2023/10/19 03:32:26;;;;;;;36.85;21.58;;;;;;;;;;4993840;28;20191;-75
2023/10/19 03:34:55;;;;;;;35.45;22.52;;;;;;;;;;5008101;28;20285;-75
2023/10/19 03:37:22;;;;;;;36.20;22.58;;;;;;;;;;4992083;28;20186;-76
2023/10/19 03:39:48;;;;;;;40.05;23.02;;;;;;;;;;4975631;28;20488;-77
2023/10/19 03:42:14;;;;;;;43.42;23.73;;;;;;;;;;4975414;28;20230;-77
2023/10/19 03:47:11;;;;;;;63.03;25.65;;;;;;;;;;5002565;28;20281;-77
2023/10/19 03:49:39;;;;;;;40.30;24.73;;;;;;;;;;4984924;28;20188;-77
2023/10/19 03:54:40;;;;;;;42.45;25.05;;;;;;;;;;4981470;28;20696;-77
2023/10/19 03:57:12;;;;;;;39.65;23.33;;;;;;;;;;4973746;28;20291;-78
2023/10/19 03:59:38;;;;;;;41.33;24.05;;;;;;;;;;4997450;28;20239;-77
2023/10/19 04:02:16;;;;;;;41.30;25.15;;;;;;;;;;5006172;28;20674;-77
2023/10/19 04:04:47;;;;;;;47.28;25.95;;;;;;;;;;4978054;28;20186;-76
2023/10/19 04:07:20;;;;;;;37.58;24.00;;;;;;;;;;5006085;28;20282;-76
2023/10/19 04:12:37;;;;;;;44.70;26.35;;;;;;;;;;4995164;28;20209;-75
2023/10/19 04:15:10;;;;;;;44.58;26.17;;;;;;;;;;5003680;28;20225;-76
2023/10/19 04:17:36;;;;;;;49.53;27.15;;;;;;;;;;4998199;28;20271;-77
2023/10/19 04:20:13;;;;;;;51.80;27.73;;;;;;;;;;5010200;28;20229;-77
2023/10/19 04:22:39;;;;;;;42.22;26.40;;;;;;;;;;5012063;28;20532;-75
2023/10/19 04:25:06;;;;;;;43.25;26.20;;;;;;;;;;5029892;28;20249;-76
2023/10/19 04:27:35;;;;;;;50.78;27.48;;;;;;;;;;5001196;28;20554;-76
2023/10/19 04:30:01;;;;;;;50.30;28.48;;;;;;;;;;4995179;28;20204;-75
2023/10/19 04:32:26;;;;;;;57.10;30.13;;;;;;;;;;5002821;28;20186;-75
2023/10/19 04:34:55;;;;;;;56.75;30.45;;;;;;;;;;5011102;28;20595;-75
2023/10/19 04:37:23;;;;;;;44.88;27.88;;;;;;;;;;5009031;28;20182;-75
2023/10/19 04:39:49;;;;;;;50.90;28.90;;;;;;;;;;5003341;28;20222;-75
2023/10/19 04:42:15;;;;;;;49.17;29.52;;;;;;;;;;4995336;28;20217;-75
2023/10/19 04:44:40;;;;;;;56.10;30.67;;;;;;;;;;4994350;28;20650;-75
2023/10/19 04:47:06;;;;;;;51.72;30.40;;;;;;;;;;4991920;28;20278;-74
2023/10/19 04:49:31;;;;;;;52.95;29.80;;;;;;;;;;5013111;28;20194;-74
2023/10/19 04:51:57;;;;;;;52.30;29.88;;;;;;;;;;4993332;28;20210;-74
2023/10/19 04:54:22;;;;;;;52.83;30.88;;;;;;;;;;5006171;28;20255;-74
2023/10/19 04:56:48;;;;;;;49.38;28.92;;;;;;;;;;5015717;28;20191;-74
2023/10/19 04:59:13;;;;;;;55.20;30.33;;;;;;;;;;4994680;28;20653;-73
2023/10/19 05:01:40;;;;;;;51.55;28.58;;;;;;;;;;4993014;28;20196;-73
2023/10/19 05:04:06;;;;;;;44.92;27.90;;;;;;;;;;4976067;28;20416;-72
2023/10/19 05:06:31;;;;;;;45.60;28.05;;;;;;;;;;4993097;28;20311;-74
2023/10/19 05:08:57;;;;;;;44.03;27.23;;;;;;;;;;4976525;28;20238;-74
2023/10/19 05:11:22;;;;;;;44.97;26.85;;;;;;;;;;4996225;28;20282;-74
2023/10/19 05:13:48;;;;;;;47.08;26.58;;;;;;;;;;4987397;28;20704;-73
2023/10/19 05:16:14;;;;;;;42.05;26.50;;;;;;;;;;4988425;28;20607;-73
2023/10/19 05:18:39;;;;;;;50.17;26.55;;;;;;;;;;4993746;28;20190;-72
2023/10/19 05:21:05;;;;;;;36.63;23.33;;;;;;;;;;4987157;28;20266;-73
2023/10/19 05:23:30;;;;;;;42.30;24.90;;;;;;;;;;4978011;28;20190;-73
2023/10/19 05:26:02;;;;;;;42.05;24.42;;;;;;;;;;4994891;28;20618;-72
2023/10/19 05:28:27;;;;;;;48.40;25.17;;;;;;;;;;4990249;28;20195;-73
2023/10/19 05:30:54;;;;;;;41.63;23.55;;;;;;;;;;4974251;28;20271;-73
2023/10/19 05:33:20;;;;;;;50.40;26.52;;;;;;;;;;4986184;28;20220;-73
2023/10/19 05:35:47;;;;;;;41.22;24.05;;;;;;;;;;5003653;28;20615;-73
2023/10/19 05:38:12;;;;;;;46.30;25.70;;;;;;;;;;4990781;28;20218;-73
2023/10/19 05:40:38;;;;;;;50.30;26.48;;;;;;;;;;4996740;28;20230;-73
2023/10/19 05:43:04;;;;;;;52.08;27.08;;;;;;;;;;4990613;28;20663;-73
2023/10/19 05:45:30;;;;;;;47.47;26.50;;;;;;;;;;4993860;28;20250;-72
2023/10/19 05:47:57;;;;;;;48.15;25.48;;;;;;;;;;4987516;28;20217;-72
2023/10/19 05:50:23;;;;;;;47.88;24.98;;;;;;;;;;4990246;28;20207;-73
2023/10/19 05:52:48;;;;;;;48.83;26.58;;;;;;;;;;4986479;28;20535;-73
2023/10/19 05:55:15;;;;;;;48.03;25.52;;;;;;;;;;4991231;28;20207;-72
2023/10/19 05:57:41;;;;;;;53.63;26.95;;;;;;;;;;4992732;28;20683;-72
2023/10/19 06:00:12;;;;;;;41.58;24.63;;;;;;;;;;5002986;28;20326;-71
2023/10/19 06:02:38;;;;;;;38.50;23.92;;;;;;;;;;5009999;28;20610;-72
2023/10/19 06:05:05;;;;;;;48.17;25.15;;;;;;;;;;4970369;28;20179;-73
2023/10/19 06:07:31;;;;;;;44.78;26.27;;;;;;;;;;5009648;28;20187;-72
2023/10/19 06:09:56;;;;;;;46.65;26.38;;;;;;;;;;4994995;28;20190;-73
2023/10/19 06:12:21;;;;;;;49.05;26.02;;;;;;;;;;5009422;28;20202;-73
2023/10/19 06:14:47;;;;;;;43.65;25.15;;;;;;;;;;4997289;28;20225;-73
2023/10/19 06:17:18;;;;;;;53.53;26.33;;;;;;;;;;4972847;28;20223;-72
2023/10/19 06:19:45;;;;;;;45.50;24.98;;;;;;;;;;5016897;28;20487;-72
2023/10/19 06:22:12;;;;;;;42.67;23.80;;;;;;;;;;5016547;28;20664;-72
2023/10/19 06:24:37;;;;;;;38.83;23.52;;;;;;;;;;5021826;28;20620;-73
2023/10/19 06:27:03;;;;;;;43.78;24.35;;;;;;;;;;4985723;28;20198;-73
2023/10/19 06:29:29;;;;;;;41.85;23.90;;;;;;;;;;5011509;28;20199;-74
2023/10/19 06:31:55;;;;;;;39.22;23.42;;;;;;;;;;5008709;28;20193;-73
2023/10/19 06:34:23;;;;;;;42.22;23.05;;;;;;;;;;5008941;28;20262;-71
2023/10/19 06:36:50;;;;;;;40.53;23.15;;;;;;;;;;4991679;28;20266;-71
2023/10/19 06:39:17;;;;;;;39.35;22.15;;;;;;;;;;4989603;28;20191;-71
2023/10/19 06:41:43;;;;;;;36.38;22.20;;;;;;;;;;5009367;28;20198;-72
2023/10/19 06:44:08;;;;;;;39.40;21.60;;;;;;;;;;5008015;28;20187;-72
2023/10/19 06:46:35;;;;;;;34.72;21.13;;;;;;;;;;5009674;28;20301;-71
2023/10/19 06:49:01;;;;;;;37.97;21.90;;;;;;;;;;5007786;28;20646;-72
2023/10/19 06:51:26;;;;;;;35.65;20.35;;;;;;;;;;5006968;28;20256;-71
2023/10/19 06:53:52;;;;;;;32.40;19.27;;;;;;;;;;5006862;28;20226;-72
2023/10/19 06:56:18;;;;;;;31.88;19.77;;;;;;;;;;5005704;28;20190;-73
2023/10/19 06:58:44;;;;;;;37.60;20.30;;;;;;;;;;5006049;28;20211;-73
2023/10/19 07:01:10;;;;;;;35.10;19.70;;;;;;;;;;4975179;28;20190;-72
2023/10/19 07:03:36;;;;;;;33.83;20.38;;;;;;;;;;5012402;28;20186;-71
2023/10/19 07:06:02;;;;;;;33.90;19.98;;;;;;;;;;4987617;28;20190;-71
2023/10/19 07:08:28;;;;;;;30.85;18.85;;;;;;;;;;5021965;28;20732;-72
2023/10/19 07:10:53;;;;;;;31.83;18.20;;;;;;;;;;5009421;28;20218;-72
2023/10/19 07:13:20;;;;;;;30.63;17.58;;;;;;;;;;5003707;28;20186;-71
2023/10/19 07:15:49;;;;;;;31.35;17.50;;;;;;;;;;4992234;28;20223;-72
2023/10/19 07:18:14;;;;;;;30.27;18.33;;;;;;;;;;4994868;28;20274;-72
2023/10/19 07:20:42;;;;;;;28.90;17.95;;;;;;;;;;5016755;28;20745;-72
2023/10/19 07:23:21;;;;;;;28.05;17.55;;;;;;;;;;5006742;28;20250;-71
2023/10/19 07:25:48;;;;;;;27.83;17.13;;;;;;;;;;5012328;28;20182;-71
2023/10/19 07:28:15;;;;;;;24.92;17.00;;;;;;;;;;5006881;28;20179;-72
2023/10/19 07:30:42;;;;;;;30.42;17.55;;;;;;;;;;5008381;28;20285;-72
2023/10/19 07:33:09;;;;;;;26.73;15.88;;;;;;;;;;5006610;28;20225;-72
2023/10/19 07:35:38;;;;;;;24.95;16.40;;;;;;;;;;4999487;28;20261;-72
2023/10/19 07:38:04;;;;;;;23.10;15.57;;;;;;;;;;4986412;28;20194;-72
2023/10/19 07:40:30;;;;;;;26.02;15.65;;;;;;;;;;5002628;28;20282;-72
2023/10/19 07:42:56;;;;;;;27.15;15.90;;;;;;;;;;5009187;28;20290;-71
2023/10/19 07:45:22;;;;;;;21.63;14.90;;;;;;;;;;5011198;28;20179;-72
2023/10/19 07:47:47;;;;;;;21.98;14.63;;;;;;;;;;4990010;28;20237;-73
2023/10/19 07:50:17;;;;;;;21.65;14.10;;;;;;;;;;5004983;28;20203;-72
2023/10/19 07:52:49;;;;;;;20.98;13.32;;;;;;;;;;4984959;28;20270;-72
2023/10/19 07:55:16;;;;;;;23.75;12.90;;;;;;;;;;5008122;28;20218;-72
2023/10/19 07:57:43;;;;;;;18.70;12.75;;;;;;;;;;5001787;28;20183;-72
2023/10/19 08:00:15;;;;;;;20.98;13.10;;;;;;;;;;5013155;28;20272;-71
2023/10/19 08:02:41;;;;;;;21.73;13.70;;;;;;;;;;4998580;28;20198;-73
2023/10/19 08:05:08;;;;;;;20.13;12.95;;;;;;;;;;4995275;28;20618;-73
2023/10/19 08:07:37;;;;;;;21.13;12.50;;;;;;;;;;5016846;28;20203;-71
2023/10/19 08:10:05;;;;;;;17.00;11.27;;;;;;;;;;5017608;28;20202;-71
2023/10/19 08:12:30;;;;;;;17.90;11.10;;;;;;;;;;5003701;28;20187;-73
2023/10/19 08:14:56;;;;;;;19.60;11.68;;;;;;;;;;5021893;28;20636;-72
2023/10/19 08:17:22;;;;;;;20.13;11.63;;;;;;;;;;5013798;28;20210;-72
2023/10/19 08:19:47;;;;;;;17.08;10.40;;;;;;;;;;5007320;28;20209;-72
2023/10/19 08:22:14;;;;;;;15.02;9.93;;;;;;;;;;5018230;28;20187;-72
2023/10/19 08:24:43;;;;;;;16.38;10.02;;;;;;;;;;5002157;28;20199;-73
2023/10/19 08:27:10;;;;;;;16.73;10.48;;;;;;;;;;5006057;28;20190;-72
2023/10/19 08:29:36;;;;;;;17.10;9.90;;;;;;;;;;4992353;28;20642;-72
2023/10/19 08:32:02;;;;;;;16.95;10.07;;;;;;;;;;4981937;28;20183;-73
2023/10/19 08:34:29;;;;;;;13.93;10.02;;;;;;;;;;5001801;28;20222;-72
2023/10/19 08:36:55;;;;;;;12.77;10.05;;;;;;;;;;5005290;28;20704;-71
2023/10/19 08:39:20;;;;;;;20.27;9.93;;;;;;;;;;4994780;28;20191;-72
2023/10/19 08:41:48;;;;;;;13.75;8.38;;;;;;;;;;4992421;28;20716;-71
2023/10/19 08:44:17;;;;;;;18.35;9.15;;;;;;;;;;4998895;28;20554;-71
2023/10/19 08:46:43;;;;;;;19.27;8.77;;;;;;;;;;5000970;28;20226;-71
2023/10/19 08:49:19;;;;;;;13.05;8.20;;;;;;;;;;4993260;28;20301;-72
2023/10/19 08:51:46;;;;;;;15.90;8.35;;;;;;;;;;4991383;28;20201;-72
2023/10/19 08:54:13;;;;;;;20.20;8.70;;;;;;;;;;5013989;28;20206;-72
2023/10/19 08:56:41;;;;;;;16.30;7.80;;;;;;;;;;5008829;28;20246;-72
2023/10/19 08:59:07;;;;;;;9.02;6.95;;;;;;;;;;5007897;28;20246;-73
2023/10/19 09:01:35;;;;;;;14.88;8.23;;;;;;;;;;5006690;28;20198;-73
2023/10/19 09:04:00;;;;;;;14.63;7.30;;;;;;;;;;5002208;28;20271;-71
2023/10/19 09:06:28;;;;;;;15.32;7.85;;;;;;;;;;4993998;28;20277;-71
2023/10/19 09:08:53;;;;;;;13.82;7.75;;;;;;;;;;4990422;28;20249;-71
2023/10/19 09:11:20;;;;;;;14.38;7.00;;;;;;;;;;4989405;28;20203;-73
2023/10/19 09:13:50;;;;;;;10.93;6.72;;;;;;;;;;4998122;28;20191;-72
2023/10/19 09:16:17;;;;;;;12.23;7.15;;;;;;;;;;4996131;28;20187;-71
2023/10/19 09:18:42;;;;;;;15.07;7.28;;;;;;;;;;5006520;28;20195;-71
2023/10/19 09:21:11;;;;;;;17.88;7.53;;;;;;;;;;5004258;28;20195;-71
2023/10/19 09:23:37;;;;;;;11.60;7.03;;;;;;;;;;5005752;28;20687;-71
2023/10/19 09:26:05;;;;;;;14.93;7.43;;;;;;;;;;4992520;28;20210;-72
2023/10/19 09:28:33;;;;;;;11.20;6.60;;;;;;;;;;5001000;28;20186;-72
2023/10/19 09:31:00;;;;;;;12.20;7.07;;;;;;;;;;5006093;28;20673;-72
2023/10/19 09:33:27;;;;;;;10.35;6.68;;;;;;;;;;5006061;28;20199;-72
2023/10/19 09:35:53;;;;;;;14.82;6.95;;;;;;;;;;5011650;28;20219;-72
2023/10/19 09:38:21;;;;;;;13.38;6.57;;;;;;;;;;5009515;28;20191;-72
2023/10/19 09:40:51;;;;;;;14.13;6.13;;;;;;;;;;5016589;28;20642;-72
2023/10/19 09:43:28;;;;;;;10.18;6.55;;;;;;;;;;5011664;28;20269;-71
2023/10/19 09:45:59;;;;;;;10.23;6.30;;;;;;;;;;4999557;28;20266;-72
2023/10/19 09:48:25;;;;;;;13.18;5.47;;;;;;;;;;4993453;28;20266;-72
2023/10/19 09:50:55;;;;;;;10.15;6.13;;;;;;;;;;5010922;28;20270;-73
2023/10/19 09:53:27;;;;;;;15.98;6.32;;;;;;;;;;5016972;28;20203;-71
2023/10/19 09:55:56;;;;;;;13.10;5.60;;;;;;;;;;4997356;28;20209;-72
2023/10/19 09:58:29;;;;;;;13.07;6.25;;;;;;;;;;4967323;28;20199;-71
2023/10/19 10:00:57;;;;;;;13.32;5.55;;;;;;;;;;4972039;28;20650;-72
2023/10/19 10:03:42;;;;;;;11.23;5.47;;;;;;;;;;4979596;28;20353;-72
2023/10/19 10:06:08;;;;;;;9.27;5.63;;;;;;;;;;4969558;28;20859;-73
2023/10/19 10:08:36;;;;;;;12.75;5.10;;;;;;;;;;4979516;28;20200;-72
2023/10/19 10:11:20;;;;;;;14.80;5.30;;;;;;;;;;4973049;28;20262;-72
2023/10/19 10:13:50;;;;;;;8.82;4.40;;;;;;;;;;4976712;28;20604;-74
2023/10/19 10:16:17;;;;;;;10.77;5.05;;;;;;;;;;4976469;28;20192;-73
2023/10/19 10:18:45;;;;;;;11.52;4.55;;;;;;;;;;4959321;28;20212;-72
2023/10/19 10:21:14;;;;;;;10.38;5.38;;;;;;;;;;4964991;28;20196;-72
2023/10/19 10:23:52;;;;;;;16.30;4.63;;;;;;;;;;4970909;28;20511;-71
2023/10/19 10:26:22;;;;;;;10.30;4.60;;;;;;;;;;4963422;28;20196;-72
2023/10/19 10:29:11;;;;;;;10.90;4.68;;;;;;;;;;4958305;28;20195;-73
2023/10/19 10:31:42;;;;;;;10.48;4.60;;;;;;;;;;4970639;28;20192;-73
2023/10/19 10:34:09;;;;;;;8.25;4.13;;;;;;;;;;4972062;28;20234;-73
2023/10/19 10:37:03;;;;;;;12.55;4.75;;;;;;;;;;4964500;28;20199;-73
2023/10/19 10:39:30;;;;;;;11.35;4.38;;;;;;;;;;4966473;28;20208;-73
2023/10/19 10:42:00;;;;;;;11.20;4.43;;;;;;;;;;4958395;28;20484;-73
2023/10/19 10:44:41;;;;;;;10.60;4.45;;;;;;;;;;4976186;28;20192;-72
2023/10/19 10:47:09;;;;;;;13.10;4.47;;;;;;;;;;4966509;28;20313;-72
2023/10/19 10:50:05;;;;;;;14.38;4.82;;;;;;;;;;4960434;28;20193;-73
2023/10/19 10:52:31;;;;;;;12.07;4.38;;;;;;;;;;4956377;28;20200;-72
2023/10/19 10:55:10;;;;;;;8.52;4.78;;;;;;;;;;4951468;28;20724;-71
2023/10/19 10:57:37;;;;;;;6.95;3.85;;;;;;;;;;4963219;28;20238;-72
2023/10/19 11:00:08;;;;;;;10.80;3.65;;;;;;;;;;4990890;28;20302;-72
2023/10/19 11:02:35;;;;;;;11.00;4.13;;;;;;;;;;4992349;28;20213;-73
2023/10/19 11:05:01;;;;;;;11.43;4.82;;;;;;;;;;4994672;28;20218;-73
2023/10/19 11:07:26;;;;;;;11.90;4.30;;;;;;;;;;4997191;28;20199;-73
2023/10/19 11:09:52;;;;;;;6.90;3.67;;;;;;;;;;5011048;28;20217;-72
2023/10/19 11:12:19;;;;;;;8.32;4.63;;;;;;;;;;5012731;28;20186;-73
2023/10/19 11:14:55;;;;;;;7.22;3.90;;;;;;;;;;4985616;28;20215;-73
2023/10/19 11:17:27;;;;;;;7.57;4.45;;;;;;;;;;5006119;28;20213;-72
2023/10/19 11:19:56;;;;;;;8.75;3.97;;;;;;;;;;5006344;28;20252;-72
2023/10/19 11:22:21;;;;;;;9.60;4.53;;;;;;;;;;4972041;28;20642;-73
2023/10/19 11:24:46;;;;;;;11.73;4.63;;;;;;;;;;4997894;28;20328;-73
2023/10/19 11:27:12;;;;;;;10.38;4.03;;;;;;;;;;5008641;28;20195;-73
2023/10/19 11:29:38;;;;;;;8.68;4.07;;;;;;;;;;5009667;28;20182;-73
2023/10/19 11:32:04;;;;;;;12.10;4.07;;;;;;;;;;5003766;28;20611;-72
2023/10/19 11:34:29;;;;;;;9.98;4.00;;;;;;;;;;5010660;28;20211;-73
2023/10/19 11:36:59;;;;;;;8.15;4.45;;;;;;;;;;5013375;28;20206;-73
2023/10/19 11:39:25;;;;;;;10.48;4.13;;;;;;;;;;5013813;28;20194;-73
2023/10/19 11:41:51;;;;;;;13.15;4.20;;;;;;;;;;5010260;28;20650;-73
2023/10/19 11:44:18;;;;;;;9.10;4.30;;;;;;;;;;5008744;28;20263;-73
2023/10/19 11:46:43;;;;;;;7.78;3.70;;;;;;;;;;4993776;28;20282;-73
2023/10/19 11:49:09;;;;;;;8.13;3.75;;;;;;;;;;5012823;28;20676;-73
2023/10/19 11:51:34;;;;;;;8.45;3.67;;;;;;;;;;5013558;28;20203;-73
2023/10/19 11:54:00;;;;;;;14.45;4.20;;;;;;;;;;5011074;28;20267;-73
2023/10/19 11:56:26;;;;;;;12.88;4.35;;;;;;;;;;5012699;28;20645;-73
2023/10/19 11:58:52;;;;;;;13.25;3.80;;;;;;;;;;5010890;28;20230;-73
2023/10/19 12:01:18;;;;;;;8.65;3.90;;;;;;;;;;5008811;28;20183;-73
2023/10/19 12:03:45;;;;;;;11.48;4.13;;;;;;;;;;5015261;28;20350;-73
2023/10/19 12:06:13;;;;;;;12.25;4.25;;;;;;;;;;5018767;28;20183;-73
2023/10/19 12:08:40;;;;;;;10.48;4.13;;;;;;;;;;5020658;28;20191;-72
2023/10/19 12:11:15;;;;;;;8.85;3.40;;;;;;;;;;5012394;28;20198;-71
2023/10/19 12:13:43;;;;;;;12.30;3.35;;;;;;;;;;5004539;28;20186;-72
2023/10/19 12:16:11;;;;;;;11.25;3.30;;;;;;;;;;5006433;28;20219;-73
2023/10/19 12:18:36;;;;;;;8.40;2.88;;;;;;;;;;5013301;28;20179;-72
2023/10/19 12:21:03;;;;;;;9.10;2.85;;;;;;;;;;5012108;28;20197;-73
2023/10/19 12:23:30;;;;;;;9.57;2.75;;;;;;;;;;5010823;28;20190;-74
2023/10/19 12:25:56;;;;;;;10.95;3.03;;;;;;;;;;4981647;28;20185;-72
2023/10/19 12:28:21;;;;;;;9.70;2.40;;;;;;;;;;4993973;28;20273;-73
2023/10/19 12:30:47;;;;;;;7.45;2.20;;;;;;;;;;5007592;28;20654;-73
2023/10/19 12:33:12;;;;;;;13.05;2.63;;;;;;;;;;4993101;28;20677;-73
2023/10/19 12:35:45;;;;;;;9.55;2.47;;;;;;;;;;5008616;28;20277;-73
2023/10/19 12:38:16;;;;;;;7.45;2.45;;;;;;;;;;5009419;28;20183;-72
2023/10/19 12:40:44;;;;;;;10.18;1.67;;;;;;;;;;5006410;28;20210;-72
2023/10/19 12:43:10;;;;;;;11.15;1.95;;;;;;;;;;5011597;28;20179;-71
2023/10/19 12:45:38;;;;;;;7.50;2.35;;;;;;;;;;4999722;28;20227;-72
2023/10/19 12:48:04;;;;;;;13.80;2.10;;;;;;;;;;4986263;28;20292;-72
2023/10/19 12:50:30;;;;;;;8.23;2.30;;;;;;;;;;5008316;28;20191;-72
2023/10/19 12:52:56;;;;;;;7.45;1.90;;;;;;;;;;4990669;28;20738;-71
2023/10/19 12:55:22;;;;;;;10.30;2.10;;;;;;;;;;5010269;28;20572;-72
2023/10/19 12:57:47;;;;;;;5.93;1.60;;;;;;;;;;5010556;28;20614;-72
2023/10/19 13:03:15;;;;;;;13.25;2.15;;;;;;;;;;4965047;28;20268;-72
2023/10/19 13:05:44;;;;;;;8.05;2.97;;;;;;;;;;5011090;28;20206;-71
2023/10/19 13:08:13;;;;;;;7.32;1.70;;;;;;;;;;5015266;28;20332;-71
2023/10/19 13:10:41;;;;;;;11.52;2.15;;;;;;;;;;4992481;28;20197;-71
2023/10/19 13:13:11;;;;;;;9.70;2.40;;;;;;;;;;4986923;28;20187;-71
2023/10/19 13:15:38;;;;;;;7.10;2.08;;;;;;;;;;4963681;28;20208;-72
2023/10/19 13:18:09;;;;;;;6.80;1.98;;;;;;;;;;5000545;28;20662;-72
2023/10/19 13:20:37;;;;;;;8.20;2.38;;;;;;;;;;5018733;28;20285;-72
2023/10/19 13:23:11;;;;;;;7.93;2.03;;;;;;;;;;5010335;28;20537;-72
2023/10/19 13:25:41;;;;;;;7.68;1.83;;;;;;;;;;4993338;28;20186;-72
2023/10/19 13:28:11;;;;;;;11.13;2.50;;;;;;;;;;5009356;28;20221;-72
2023/10/19 13:30:47;;;;;;;5.50;1.98;;;;;;;;;;5007596;28;20569;-72
2023/10/19 13:33:13;;;;;;;6.57;1.77;;;;;;;;;;5002721;28;20622;-71
2023/10/19 13:35:40;;;;;;;8.85;1.77;;;;;;;;;;5013297;28;20202;-71
2023/10/19 13:38:07;;;;;;;6.75;1.70;;;;;;;;;;4993434;28;20195;-71
2023/10/19 13:40:51;;;;;;;5.30;1.50;;;;;;;;;;4935065;28;10001270;-72
2023/10/19 13:43:18;;;;;;;9.60;1.50;;;;;;;;;;5005438;28;20414;-72
2023/10/19 13:45:44;;;;;;;6.55;2.10;;;;;;;;;;4996416;28;20213;-72
2023/10/19 13:48:11;;;;;;;8.50;1.13;;;;;;;;;;5003043;28;20274;-71
2023/10/19 13:50:53;;;;;;;5.25;1.45;;;;;;;;;;4993458;28;20581;-72
2023/10/19 13:53:19;;;;;;;6.35;1.35;;;;;;;;;;4975055;28;20289;-73
2023/10/19 13:55:45;;;;;;;5.70;1.60;;;;;;;;;;5009026;28;20292;-72
2023/10/19 13:58:10;;;;;;;6.00;1.63;;;;;;;;;;4995028;28;20194;-72
2023/10/19 14:03:05;;;;;;;5.15;1.50;;;;;;;;;;4998196;28;20202;-73
2023/10/19 14:05:39;;;;;;;7.47;1.90;;;;;;;;;;5000255;28;20191;-73
2023/10/19 14:08:06;;;;;;;5.85;1.50;;;;;;;;;;5004016;28;20219;-73
2023/10/19 14:10:31;;;;;;;9.25;1.63;;;;;;;;;;5008470;28;20962;-71
2023/10/19 14:12:57;;;;;;;7.50;1.70;;;;;;;;;;5001480;28;20245;-72
2023/10/19 14:15:22;;;;;;;8.30;1.73;;;;;;;;;;5005169;28;20214;-72
2023/10/19 14:17:49;;;;;;;8.27;1.20;;;;;;;;;;4988176;28;20206;-73
2023/10/19 14:20:15;;;;;;;6.53;1.60;;;;;;;;;;5006491;28;20635;-72
2023/10/19 14:22:53;;;;;;;6.82;1.70;;;;;;;;;;5001920;28;20301;-72
2023/10/19 14:25:20;;;;;;;9.25;2.28;;;;;;;;;;5006104;28;20201;-72
2023/10/19 14:27:48;;;;;;;12.85;1.98;;;;;;;;;;5014349;28;20195;-72
2023/10/19 14:30:15;;;;;;;9.88;2.28;;;;;;;;;;5006809;28;20201;-72
2023/10/19 14:32:43;;;;;;;11.30;2.47;;;;;;;;;;5006053;28;20191;-72
2023/10/19 14:35:13;;;;;;;10.25;2.40;;;;;;;;;;5010767;28;20214;-73
2023/10/19 14:37:41;;;;;;;11.40;2.35;;;;;;;;;;5000587;28;20341;-72
2023/10/19 14:40:09;;;;;;;11.98;2.40;;;;;;;;;;5007500;28;20191;-72
2023/10/19 14:42:38;;;;;;;6.88;2.00;;;;;;;;;;4998033;28;20191;-72
2023/10/19 14:45:09;;;;;;;10.00;1.98;;;;;;;;;;4671485;28;10000522;-72
2023/10/19 14:47:37;;;;;;;10.13;2.33;;;;;;;;;;5006814;28;20372;-72
2023/10/19 14:50:04;;;;;;;11.57;2.45;;;;;;;;;;5006498;28;20190;-73
2023/10/19 14:52:30;;;;;;;8.18;2.20;;;;;;;;;;4985291;28;20221;-72